createdAt,value
2022-11-07T00:00:35.769Z,89.19
2022-11-07T00:01:35.794Z,89.61
2022-11-07T00:02:35.806Z,89.81
2022-11-07T00:03:35.739Z,89.09
2022-11-07T00:04:35.730Z,89.05
2022-11-07T00:05:35.724Z,89.36
2022-11-07T00:06:35.707Z,89.36
2022-11-07T00:07:35.701Z,89.25
2022-11-07T00:08:35.689Z,89.61
2022-11-07T00:09:35.680Z,89.19
2022-11-07T00:10:35.672Z,89.15
2022-11-07T00:11:35.658Z,88.74
2022-11-07T00:12:35.649Z,88.95
2022-11-07T00:13:35.641Z,88.89
2022-11-07T00:14:35.630Z,89.09
2022-11-07T00:15:35.619Z,89.25
2022-11-07T00:16:35.614Z,89.36
2022-11-07T00:17:35.597Z,89.15
2022-11-07T00:18:35.592Z,89.05
2022-11-07T00:19:35.581Z,88.95
2022-11-07T00:20:35.574Z,89.46
2022-11-07T00:21:35.561Z,89.67
2022-11-07T00:22:35.546Z,89.56
2022-11-07T00:23:35.542Z,89.56
2022-11-07T00:24:35.534Z,89.46
2022-11-07T00:25:35.522Z,89.46
2022-11-07T00:26:35.515Z,90.18
2022-11-07T00:27:35.556Z,90.08
2022-11-07T00:28:35.490Z,89.67
2022-11-07T00:29:35.480Z,89.97
2022-11-07T00:30:35.474Z,90.28
2022-11-07T00:31:35.478Z,90.28
2022-11-07T00:32:35.454Z,90.28
2022-11-07T00:33:35.450Z,89.87
2022-11-07T00:34:35.434Z,89.87
2022-11-07T00:35:35.419Z,89.77
2022-11-07T00:36:35.414Z,89.77
2022-11-07T00:37:35.404Z,90.28
2022-11-07T00:38:35.390Z,90.18
2022-11-07T00:39:35.387Z,89.87
2022-11-07T00:40:35.372Z,90.28
2022-11-07T00:41:35.369Z,90.28
2022-11-07T00:42:35.354Z,90.39
2022-11-07T00:43:35.344Z,90.69
2022-11-07T00:44:35.334Z,90.39
2022-11-07T00:45:35.321Z,89.91
2022-11-07T00:46:35.314Z,90.39
2022-11-07T00:47:35.314Z,89.67
2022-11-07T00:48:35.293Z,89.87
2022-11-07T00:49:35.282Z,90.39
2022-11-07T00:50:35.276Z,90.08
2022-11-07T00:51:35.270Z,90.69
2022-11-07T00:52:35.257Z,90.39
2022-11-07T00:53:35.256Z,90.28
2022-11-07T00:54:35.236Z,90.59
2022-11-07T00:55:35.229Z,90.69
2022-11-07T00:56:35.230Z,90.69
2022-11-07T00:57:35.206Z,90.49
2022-11-07T00:58:35.193Z,90.69
2022-11-07T00:59:35.191Z,90.69
2022-11-07T01:00:35.183Z,90.08
2022-11-07T01:01:35.300Z,90.28
2022-11-07T01:02:35.263Z,90.49
2022-11-07T01:03:35.149Z,90.69
2022-11-07T01:04:35.138Z,90.69
2022-11-07T01:05:35.130Z,90.69
2022-11-07T01:06:35.114Z,90.28
2022-11-07T01:07:35.111Z,90.28
2022-11-07T01:08:35.106Z,90.59
2022-11-07T01:09:35.094Z,90.08
2022-11-07T01:10:35.080Z,90.08
2022-11-07T01:11:35.073Z,90.08
2022-11-07T01:12:35.057Z,90.39
2022-11-07T01:13:35.051Z,90.39
2022-11-07T01:14:35.044Z,90.18
2022-11-07T01:15:35.029Z,90.18
2022-11-07T01:16:35.018Z,89.97
2022-11-07T01:17:35.010Z,90.24
2022-11-07T01:18:34.999Z,90.18
2022-11-07T01:19:34.995Z,90.28
2022-11-07T01:20:34.983Z,89.97
2022-11-07T01:21:34.974Z,89.87
2022-11-07T01:22:34.965Z,89.97
2022-11-07T01:23:34.949Z,89.83
2022-11-07T01:24:34.941Z,89.73
2022-11-07T01:25:34.934Z,89.73
2022-11-07T01:26:34.926Z,89.73
2022-11-07T01:27:34.912Z,89.46
2022-11-07T01:28:34.903Z,90.03
2022-11-07T01:29:34.893Z,89.94
2022-11-07T01:30:34.882Z,89.83
2022-11-07T01:31:34.880Z,89.73
2022-11-07T01:32:34.865Z,89.52
2022-11-07T01:33:34.854Z,89.52
2022-11-07T01:34:34.980Z,89.94
2022-11-07T01:35:34.838Z,89.52
2022-11-07T01:36:34.835Z,89.83
2022-11-07T01:37:34.821Z,89.87
2022-11-07T01:38:34.807Z,89.42
2022-11-07T01:39:34.799Z,89.94
2022-11-07T01:40:34.791Z,89.94
2022-11-07T01:41:34.779Z,90.03
2022-11-07T01:42:34.779Z,89.83
2022-11-07T01:43:34.758Z,89.73
2022-11-07T01:44:34.748Z,89.94
2022-11-07T01:45:34.744Z,90.08
2022-11-07T01:46:34.735Z,89.46
2022-11-07T01:47:34.720Z,89.97
2022-11-07T01:48:34.715Z,89.94
2022-11-07T01:49:34.699Z,89.83
2022-11-07T01:50:34.691Z,89.97
2022-11-07T01:51:34.686Z,89.87
2022-11-07T01:52:34.685Z,89.87
2022-11-07T01:53:34.661Z,89.87
2022-11-07T01:54:34.658Z,90.18
2022-11-07T01:55:34.642Z,90.14
2022-11-07T01:56:34.631Z,90.28
2022-11-07T01:57:34.633Z,90.59
2022-11-07T01:58:34.614Z,90.18
2022-11-07T01:59:34.605Z,90.24
2022-11-07T02:00:34.594Z,90.55
2022-11-07T02:01:34.690Z,90.24
2022-11-07T02:02:34.696Z,90.24
2022-11-07T02:03:34.567Z,90.24
2022-11-07T02:04:34.572Z,90.03
2022-11-07T02:05:34.555Z,90.24
2022-11-07T02:06:34.539Z,89.83
2022-11-07T02:07:34.551Z,89.73
2022-11-07T02:08:34.524Z,90.24
2022-11-07T02:09:34.512Z,89.94
2022-11-07T02:10:34.579Z,90.03
2022-11-07T02:11:34.490Z,90.34
2022-11-07T02:12:34.478Z,90.24
2022-11-07T02:13:34.471Z,90.14
2022-11-07T02:14:34.458Z,90.34
2022-11-07T02:15:34.450Z,90.03
2022-11-07T02:16:34.443Z,90.14
2022-11-07T02:17:34.433Z,90.03
2022-11-07T02:18:34.419Z,90.03
2022-11-07T02:19:34.420Z,90.03
2022-11-07T02:20:34.406Z,90.03
2022-11-07T02:21:34.387Z,89.94
2022-11-07T02:22:34.380Z,90.14
2022-11-07T02:23:34.378Z,90.66
2022-11-07T02:24:34.365Z,90.45
2022-11-07T02:25:34.361Z,90.66
2022-11-07T02:26:34.341Z,90.75
2022-11-07T02:27:34.333Z,90.66
2022-11-07T02:28:34.334Z,90.45
2022-11-07T02:29:34.313Z,90.24
2022-11-07T02:30:34.388Z,90.86
2022-11-07T02:31:34.312Z,90.66
2022-11-07T02:32:34.281Z,90.45
2022-11-07T02:33:34.279Z,90.45
2022-11-07T02:34:34.276Z,90.20
2022-11-07T02:35:34.259Z,90.20
2022-11-07T02:36:34.248Z,90.09
2022-11-07T02:37:34.239Z,89.69
2022-11-07T02:38:34.228Z,89.69
2022-11-07T02:39:34.218Z,89.69
2022-11-07T02:40:34.212Z,89.79
2022-11-07T02:41:34.200Z,89.79
2022-11-07T02:42:34.187Z,89.89
2022-11-07T02:43:34.182Z,89.69
2022-11-07T02:44:34.170Z,89.69
2022-11-07T02:45:34.163Z,89.69
2022-11-07T02:46:34.149Z,89.58
2022-11-07T02:47:34.140Z,89.62
2022-11-07T02:48:34.135Z,89.79
2022-11-07T02:49:34.121Z,89.79
2022-11-07T02:50:34.111Z,89.69
2022-11-07T02:51:34.102Z,89.48
2022-11-07T02:52:34.092Z,89.69
2022-11-07T02:53:34.084Z,89.79
2022-11-07T02:54:34.078Z,90.00
2022-11-07T02:55:34.065Z,89.48
2022-11-07T02:56:34.060Z,89.79
2022-11-07T02:57:34.047Z,89.79
2022-11-07T02:58:34.034Z,89.79
2022-11-07T02:59:34.032Z,89.79
2022-11-07T03:00:34.018Z,89.69
2022-11-07T03:01:34.121Z,89.79
2022-11-07T03:02:34.175Z,89.79
2022-11-07T03:03:33.985Z,89.48
2022-11-07T03:04:33.982Z,89.38
2022-11-07T03:05:33.984Z,89.34
2022-11-07T03:06:33.960Z,89.34
2022-11-07T03:07:33.952Z,89.38
2022-11-07T03:08:33.943Z,89.23
2022-11-07T03:09:33.929Z,89.44
2022-11-07T03:10:33.922Z,89.54
2022-11-07T03:11:33.932Z,89.28
2022-11-07T03:12:33.902Z,89.34
2022-11-07T03:13:33.893Z,89.23
2022-11-07T03:14:33.934Z,89.13
2022-11-07T03:15:33.885Z,89.23
2022-11-07T03:16:33.869Z,89.34
2022-11-07T03:17:33.856Z,89.03
2022-11-07T03:18:33.847Z,89.13
2022-11-07T03:19:33.847Z,89.03
2022-11-07T03:20:33.834Z,88.72
2022-11-07T03:21:33.814Z,88.92
2022-11-07T03:22:33.807Z,89.03
2022-11-07T03:23:33.796Z,88.20
2022-11-07T03:24:33.793Z,88.57
2022-11-07T03:25:33.784Z,88.20
2022-11-07T03:26:33.769Z,88.10
2022-11-07T03:27:33.781Z,88.82
2022-11-07T03:28:33.754Z,88.82
2022-11-07T03:29:33.744Z,88.92
2022-11-07T03:30:33.744Z,88.17
2022-11-07T03:31:33.728Z,88.51
2022-11-07T03:32:33.715Z,88.27
2022-11-07T03:33:33.715Z,88.17
2022-11-07T03:34:33.695Z,88.20
2022-11-07T03:35:33.693Z,88.17
2022-11-07T03:36:33.686Z,88.06
2022-11-07T03:37:33.674Z,88.57
2022-11-07T03:38:33.660Z,88.37
2022-11-07T03:39:33.649Z,88.47
2022-11-07T03:40:33.641Z,88.31
2022-11-07T03:41:33.632Z,88.47
2022-11-07T03:42:33.647Z,88.27
2022-11-07T03:43:33.611Z,88.89
2022-11-07T03:44:33.605Z,88.06
2022-11-07T03:45:33.596Z,87.96
2022-11-07T03:46:33.597Z,88.20
2022-11-07T03:47:33.577Z,88.37
2022-11-07T03:48:33.565Z,88.27
2022-11-07T03:49:33.559Z,87.75
2022-11-07T03:50:33.624Z,87.85
2022-11-07T03:51:33.540Z,88.57
2022-11-07T03:52:33.531Z,88.37
2022-11-07T03:53:33.517Z,87.65
2022-11-07T03:54:33.511Z,87.85
2022-11-07T03:55:33.509Z,88.47
2022-11-07T03:56:33.491Z,88.37
2022-11-07T03:57:33.488Z,88.89
2022-11-07T03:58:33.473Z,88.27
2022-11-07T03:59:33.461Z,88.68
2022-11-07T04:00:33.458Z,88.57
2022-11-07T04:01:33.617Z,88.37
2022-11-07T04:02:33.554Z,88.47
2022-11-07T04:03:33.425Z,88.27
2022-11-07T04:04:33.418Z,88.57
2022-11-07T04:05:33.408Z,88.33
2022-11-07T04:06:33.399Z,88.43
2022-11-07T04:07:33.390Z,87.96
2022-11-07T04:08:33.384Z,88.17
2022-11-07T04:09:33.374Z,88.47
2022-11-07T04:10:33.363Z,88.43
2022-11-07T04:11:33.357Z,88.17
2022-11-07T04:12:33.342Z,87.71
2022-11-07T04:13:33.371Z,87.65
2022-11-07T04:14:33.337Z,87.82
2022-11-07T04:15:33.316Z,87.55
2022-11-07T04:16:33.308Z,87.96
2022-11-07T04:17:33.299Z,87.92
2022-11-07T04:18:33.286Z,87.82
2022-11-07T04:19:33.281Z,87.75
2022-11-07T04:20:33.271Z,87.75
2022-11-07T04:21:33.263Z,87.30
2022-11-07T04:22:33.254Z,87.82
2022-11-07T04:23:33.246Z,87.45
2022-11-07T04:24:33.234Z,87.75
2022-11-07T04:25:33.221Z,88.64
2022-11-07T04:26:33.215Z,87.30
2022-11-07T04:27:33.212Z,88.12
2022-11-07T04:28:33.199Z,88.43
2022-11-07T04:29:33.208Z,87.65
2022-11-07T04:30:33.183Z,87.61
2022-11-07T04:31:33.168Z,88.02
2022-11-07T04:32:33.156Z,88.02
2022-11-07T04:33:33.161Z,88.02
2022-11-07T04:34:33.144Z,88.17
2022-11-07T04:35:33.134Z,88.06
2022-11-07T04:36:33.125Z,87.75
2022-11-07T04:37:33.113Z,87.75
2022-11-07T04:38:33.189Z,87.51
2022-11-07T04:39:33.098Z,88.33
2022-11-07T04:40:33.085Z,88.12
2022-11-07T04:41:33.084Z,88.02
2022-11-07T04:42:33.068Z,88.33
2022-11-07T04:43:33.061Z,88.33
2022-11-07T04:44:33.050Z,87.71
2022-11-07T04:45:33.036Z,87.20
2022-11-07T04:46:33.031Z,88.02
2022-11-07T04:47:36.434Z,87.71
2022-11-07T04:48:33.010Z,87.82
2022-11-07T04:49:33.010Z,87.82
2022-11-07T04:50:32.995Z,87.82
2022-11-07T04:51:32.982Z,87.61
2022-11-07T04:52:32.986Z,87.92
2022-11-07T04:53:32.967Z,87.71
2022-11-07T04:54:32.959Z,87.61
2022-11-07T04:55:32.951Z,88.02
2022-11-07T04:56:34.581Z,87.40
2022-11-07T04:57:32.929Z,87.82
2022-11-07T04:58:32.927Z,87.71
2022-11-07T04:59:32.915Z,87.92
2022-11-07T05:00:32.907Z,87.92
2022-11-07T05:01:32.958Z,87.61
2022-11-07T05:02:32.989Z,87.61
2022-11-07T05:03:35.188Z,87.82
2022-11-07T05:04:32.866Z,88.12
2022-11-07T05:05:32.860Z,87.92
2022-11-07T05:06:32.848Z,87.82
2022-11-07T05:07:32.840Z,87.51
2022-11-07T05:08:32.834Z,88.43
2022-11-07T05:09:32.816Z,88.33
2022-11-07T05:10:32.815Z,88.02
2022-11-07T05:11:32.814Z,87.82
2022-11-07T05:12:32.796Z,87.82
2022-11-07T05:13:32.785Z,87.98
2022-11-07T05:14:32.777Z,88.12
2022-11-07T05:15:32.761Z,88.12
2022-11-07T05:16:32.758Z,87.82
2022-11-07T05:17:32.756Z,87.51
2022-11-07T05:18:32.747Z,87.88
2022-11-07T05:19:32.741Z,87.88
2022-11-07T05:20:32.725Z,88.33
2022-11-07T05:21:32.710Z,87.77
2022-11-07T05:22:32.701Z,87.77
2022-11-07T05:23:32.698Z,87.88
2022-11-07T05:24:32.683Z,87.37
2022-11-07T05:25:32.677Z,87.98
2022-11-07T05:26:32.666Z,87.57
2022-11-07T05:27:32.662Z,87.26
2022-11-07T05:28:38.843Z,86.65
2022-11-07T05:29:32.638Z,86.75
2022-11-07T05:30:32.665Z,86.54
2022-11-07T05:31:32.620Z,87.16
2022-11-07T05:32:32.612Z,86.99
2022-11-07T05:33:32.598Z,86.65
2022-11-07T05:34:32.597Z,86.85
2022-11-07T05:35:32.584Z,87.05
2022-11-07T05:36:39.736Z,87.05
2022-11-07T05:38:25.670Z,86.75
2022-11-07T05:39:25.655Z,87.16
2022-11-07T05:41:29.654Z,87.57
2022-11-07T05:42:29.641Z,87.05
2022-11-07T05:44:33.650Z,87.26
2022-11-07T05:45:33.629Z,87.26
2022-11-07T05:47:26.562Z,87.46
2022-11-07T05:48:26.541Z,87.05
2022-11-07T05:50:30.517Z,87.37
2022-11-07T05:51:30.503Z,87.37
2022-11-07T05:53:34.619Z,87.57
2022-11-07T05:54:34.481Z,87.37
2022-11-07T05:56:38.453Z,86.91
2022-11-07T05:57:38.434Z,86.60
2022-11-07T05:59:42.405Z,86.60
2022-11-07T06:00:42.386Z,86.60
2022-11-07T06:02:46.509Z,86.40
2022-11-07T06:03:46.348Z,86.30
2022-11-07T06:05:39.757Z,86.40
2022-11-07T06:06:39.741Z,86.30
2022-11-07T06:07:39.733Z,86.09
2022-11-07T06:08:39.725Z,85.78
2022-11-07T06:09:39.719Z,85.99
2022-11-07T06:10:39.706Z,86.30
2022-11-07T06:11:39.698Z,86.03
2022-11-07T06:12:39.746Z,85.82
2022-11-07T06:13:39.681Z,85.78
2022-11-07T06:14:39.675Z,86.19
2022-11-07T06:15:39.663Z,85.89
2022-11-07T06:16:39.654Z,85.27
2022-11-07T06:17:39.646Z,85.89
2022-11-07T06:18:41.848Z,85.99
2022-11-07T06:19:39.627Z,86.09
2022-11-07T06:20:39.625Z,85.89
2022-11-07T06:21:39.608Z,85.99
2022-11-07T06:22:39.599Z,85.99
2022-11-07T06:23:39.593Z,86.09
2022-11-07T06:24:39.581Z,84.86
2022-11-07T06:25:39.576Z,84.96
2022-11-07T06:26:39.563Z,85.58
2022-11-07T06:27:39.555Z,85.47
2022-11-07T06:28:39.547Z,85.68
2022-11-07T06:29:39.549Z,85.06
2022-11-07T06:30:39.527Z,84.96
2022-11-07T06:31:39.520Z,84.96
2022-11-07T06:32:39.514Z,85.47
2022-11-07T06:33:39.503Z,85.06
2022-11-07T06:34:39.491Z,85.06
2022-11-07T06:35:39.483Z,85.27
2022-11-07T06:36:39.474Z,85.17
2022-11-07T06:37:39.467Z,85.06
2022-11-07T06:38:39.459Z,85.06
2022-11-07T06:39:39.449Z,85.17
2022-11-07T06:40:39.439Z,85.06
2022-11-07T06:41:39.432Z,85.06
2022-11-07T06:42:39.428Z,84.96
2022-11-07T06:43:39.411Z,85.27
2022-11-07T06:44:39.405Z,85.06
2022-11-07T06:45:39.396Z,84.96
2022-11-07T06:46:39.385Z,85.06
2022-11-07T06:47:39.380Z,85.13
2022-11-07T06:48:39.374Z,84.92
2022-11-07T06:49:39.359Z,85.03
2022-11-07T06:50:39.350Z,84.96
2022-11-07T06:51:41.708Z,85.03
2022-11-07T06:52:39.331Z,84.61
2022-11-07T06:53:39.326Z,84.72
2022-11-07T06:54:39.315Z,84.72
2022-11-07T06:55:39.319Z,84.61
2022-11-07T06:56:39.295Z,84.72
2022-11-07T06:57:39.292Z,84.82
2022-11-07T06:58:39.287Z,84.61
2022-11-07T06:59:39.272Z,84.92
2022-11-07T07:00:39.297Z,84.72
2022-11-07T07:01:39.394Z,84.52
2022-11-07T07:02:57.283Z,84.72
2022-11-07T07:03:39.235Z,84.82
2022-11-07T07:04:39.226Z,84.00
2022-11-07T07:05:39.221Z,84.20
2022-11-07T07:06:39.210Z,84.31
2022-11-07T07:07:39.198Z,84.47
2022-11-07T07:08:39.192Z,84.41
2022-11-07T07:09:39.183Z,84.52
2022-11-07T07:10:39.173Z,84.41
2022-11-07T07:11:39.173Z,84.52
2022-11-07T07:12:39.156Z,83.39
2022-11-07T07:13:39.149Z,83.96
2022-11-07T07:14:39.138Z,84.52
2022-11-07T07:15:50.489Z,84.41
2022-11-07T07:16:39.204Z,83.59
2022-11-07T07:17:39.114Z,84.31
2022-11-07T07:18:39.102Z,84.31
2022-11-07T07:19:39.117Z,84.17
2022-11-07T07:20:39.084Z,84.27
2022-11-07T07:21:39.080Z,84.27
2022-11-07T07:22:39.064Z,83.96
2022-11-07T07:23:39.095Z,84.06
2022-11-07T07:24:39.047Z,83.76
2022-11-07T07:25:39.043Z,83.86
2022-11-07T07:26:39.032Z,83.72
2022-11-07T07:27:39.025Z,83.92
2022-11-07T07:28:39.014Z,83.72
2022-11-07T07:29:39.006Z,82.73
2022-11-07T07:30:38.999Z,83.00
2022-11-07T07:31:38.991Z,83.20
2022-11-07T07:32:39.069Z,83.41
2022-11-07T07:33:38.973Z,83.31
2022-11-07T07:34:38.964Z,83.20
2022-11-07T07:35:38.955Z,83.31
2022-11-07T07:36:38.946Z,83.00
2022-11-07T07:37:38.938Z,83.20
2022-11-07T07:38:38.931Z,83.31
2022-11-07T07:39:38.922Z,83.00
2022-11-07T07:40:38.939Z,83.20
2022-11-07T07:41:40.301Z,83.06
2022-11-07T07:42:38.898Z,82.76
2022-11-07T07:43:38.887Z,82.79
2022-11-07T07:44:38.878Z,83.06
2022-11-07T07:45:38.871Z,83.17
2022-11-07T07:46:38.862Z,82.79
2022-11-07T07:47:38.851Z,82.55
2022-11-07T07:48:38.927Z,82.49
2022-11-07T07:49:38.837Z,82.24
2022-11-07T07:50:38.824Z,82.55
2022-11-07T07:51:38.818Z,82.04
2022-11-07T07:52:38.816Z,81.84
2022-11-07T07:53:38.803Z,82.76
2022-11-07T07:54:38.798Z,82.45
2022-11-07T07:55:38.782Z,82.79
2022-11-07T07:56:38.819Z,83.06
2022-11-07T07:57:38.766Z,82.79
2022-11-07T07:58:38.757Z,82.76
2022-11-07T07:59:38.750Z,82.76
2022-11-07T08:00:38.783Z,82.45
2022-11-07T08:01:38.839Z,82.35
2022-11-07T08:02:38.787Z,82.41
2022-11-07T08:03:59.761Z,82.00
2022-11-07T08:04:38.798Z,82.21
2022-11-07T08:05:38.700Z,82.00
2022-11-07T08:06:38.695Z,81.45
2022-11-07T08:07:38.684Z,81.65
2022-11-07T08:08:38.688Z,81.04
2022-11-07T08:09:38.665Z,80.83
2022-11-07T08:10:43.012Z,81.01
2022-11-07T08:11:38.649Z,80.39
2022-11-07T08:12:38.642Z,80.29
2022-11-07T08:13:38.634Z,80.29
2022-11-07T08:14:38.622Z,79.94
2022-11-07T08:15:38.620Z,80.25
2022-11-07T08:16:38.609Z,80.01
2022-11-07T08:17:38.757Z,80.01
2022-11-07T08:18:38.592Z,79.91
2022-11-07T08:19:38.585Z,79.39
2022-11-07T08:20:38.664Z,79.46
2022-11-07T08:21:38.601Z,79.60
2022-11-07T08:22:38.562Z,78.85
2022-11-07T08:23:38.551Z,78.64
2022-11-07T08:24:38.545Z,78.23
2022-11-07T08:25:38.536Z,79.05
2022-11-07T08:26:38.527Z,78.20
2022-11-07T08:27:38.521Z,78.64
2022-11-07T08:28:38.513Z,78.30
2022-11-07T08:29:38.503Z,78.30
2022-11-07T08:30:38.494Z,78.44
2022-11-07T08:31:38.489Z,78.20
2022-11-07T08:32:38.478Z,78.54
2022-11-07T08:33:38.536Z,79.05
2022-11-07T08:34:38.463Z,78.75
2022-11-07T08:35:42.551Z,78.68
2022-11-07T08:36:38.450Z,78.85
2022-11-07T08:37:38.443Z,78.64
2022-11-07T08:38:38.430Z,79.39
2022-11-07T08:39:38.424Z,79.57
2022-11-07T08:40:39.248Z,79.25
2022-11-07T08:41:38.410Z,79.36
2022-11-07T08:42:38.402Z,79.77
2022-11-07T08:43:38.391Z,79.16
2022-11-07T08:44:38.386Z,78.85
2022-11-07T08:45:38.377Z,79.05
2022-11-07T08:46:38.372Z,79.46
2022-11-07T08:47:38.362Z,79.57
2022-11-07T08:48:38.356Z,79.57
2022-11-07T08:49:38.348Z,79.66
2022-11-07T08:50:38.341Z,79.43
2022-11-07T08:51:38.332Z,79.36
2022-11-07T08:52:38.331Z,79.46
2022-11-07T08:53:38.315Z,79.46
2022-11-07T08:54:38.311Z,78.75
2022-11-07T08:55:38.303Z,78.75
2022-11-07T08:56:38.292Z,78.95
2022-11-07T08:57:38.300Z,79.25
2022-11-07T08:58:38.278Z,79.97
2022-11-07T08:59:38.273Z,79.36
2022-11-07T09:00:38.314Z,79.87
2022-11-07T09:01:56.074Z,79.66
2022-11-07T09:03:12.581Z,79.97
2022-11-07T09:03:45.532Z,79.93
2022-11-07T09:04:38.436Z,79.77
2022-11-07T09:05:38.224Z,79.83
2022-11-07T09:06:38.219Z,79.93
2022-11-07T09:07:38.211Z,79.73
2022-11-07T09:08:38.202Z,79.66
2022-11-07T09:09:38.196Z,79.66
2022-11-07T09:10:38.187Z,79.63
2022-11-07T09:11:38.182Z,80.24
2022-11-07T09:12:38.178Z,79.83
2022-11-07T09:13:38.169Z,79.43
2022-11-07T09:14:38.157Z,79.93
2022-11-07T09:15:38.152Z,79.52
2022-11-07T09:16:38.143Z,79.43
2022-11-07T09:17:38.137Z,78.98
2022-11-07T09:18:38.127Z,79.39
2022-11-07T09:19:38.120Z,79.39
2022-11-07T09:20:38.112Z,79.59
2022-11-07T09:21:38.105Z,78.57
2022-11-07T09:22:38.100Z,78.53
2022-11-07T09:23:38.089Z,78.23
2022-11-07T09:24:38.158Z,78.74
2022-11-07T09:25:38.078Z,78.39
2022-11-07T09:26:38.067Z,78.09
2022-11-07T09:27:38.063Z,78.80
2022-11-07T09:28:38.057Z,78.05
2022-11-07T09:29:38.047Z,76.76
2022-11-07T09:30:38.040Z,77.68
2022-11-07T09:31:38.035Z,77.89
2022-11-07T09:32:44.840Z,76.97
2022-11-07T09:33:38.019Z,77.89
2022-11-07T09:34:38.008Z,76.97
2022-11-07T09:35:38.001Z,76.66
2022-11-07T09:36:37.991Z,77.37
2022-11-07T09:37:37.988Z,77.48
2022-11-07T09:38:37.982Z,77.21
2022-11-07T09:39:37.975Z,77.07
2022-11-07T09:40:37.977Z,77.68
2022-11-07T09:41:37.963Z,78.19
2022-11-07T09:42:38.436Z,77.89
2022-11-07T09:43:37.945Z,78.09
2022-11-07T09:44:37.934Z,78.64
2022-11-07T09:45:37.931Z,78.39
2022-11-07T09:46:37.922Z,78.13
2022-11-07T09:47:37.915Z,78.02
2022-11-07T09:48:37.908Z,77.89
2022-11-07T09:49:37.903Z,78.09
2022-11-07T09:50:37.894Z,77.58
2022-11-07T09:51:37.887Z,76.73
2022-11-07T09:52:37.926Z,76.93
2022-11-07T09:53:37.884Z,77.03
2022-11-07T09:54:37.869Z,76.93
2022-11-07T09:55:37.859Z,77.34
2022-11-07T09:56:37.851Z,76.83
2022-11-07T09:57:37.846Z,77.10
2022-11-07T09:58:37.838Z,77.00
2022-11-07T09:59:37.875Z,77.30
2022-11-07T10:00:37.851Z,76.79
2022-11-07T10:01:37.984Z,77.10
2022-11-07T10:02:37.811Z,76.18
2022-11-07T10:03:37.805Z,77.00
2022-11-07T10:04:37.796Z,77.40
2022-11-07T10:05:37.789Z,76.49
2022-11-07T10:06:37.783Z,76.90
2022-11-07T10:07:37.776Z,77.37
2022-11-07T10:08:37.995Z,76.86
2022-11-07T10:09:37.764Z,77.17
2022-11-07T10:10:37.754Z,76.90
2022-11-07T10:11:37.751Z,77.10
2022-11-07T10:12:43.179Z,76.59
2022-11-07T10:13:37.734Z,76.56
2022-11-07T10:14:37.724Z,76.69
2022-11-07T10:15:37.716Z,76.69
2022-11-07T10:16:37.711Z,76.79
2022-11-07T10:17:37.704Z,76.79
2022-11-07T10:18:37.695Z,77.40
2022-11-07T10:19:37.691Z,76.96
2022-11-07T10:20:37.684Z,76.76
2022-11-07T10:21:38.953Z,76.69
2022-11-07T10:22:37.671Z,77.71
2022-11-07T10:23:37.663Z,76.86
2022-11-07T10:24:37.655Z,77.47
2022-11-07T10:25:37.650Z,76.65
2022-11-07T10:26:37.642Z,77.26
2022-11-07T10:27:37.634Z,76.25
2022-11-07T10:28:37.627Z,76.35
2022-11-07T10:29:44.122Z,76.15
2022-11-07T10:30:37.615Z,76.65
2022-11-07T10:31:37.607Z,76.65
2022-11-07T10:32:37.601Z,76.86
2022-11-07T10:33:37.593Z,76.56
2022-11-07T10:34:37.593Z,76.35
2022-11-07T10:35:37.585Z,75.95
2022-11-07T10:36:37.572Z,76.96
2022-11-07T10:37:37.565Z,77.06
2022-11-07T10:38:37.560Z,76.04
2022-11-07T10:39:37.557Z,76.15
2022-11-07T10:40:37.552Z,75.95
2022-11-07T10:41:37.538Z,76.04
2022-11-07T10:42:37.529Z,75.84
2022-11-07T10:43:37.523Z,76.45
2022-11-07T10:44:37.518Z,76.65
2022-11-07T10:45:37.510Z,76.86
2022-11-07T10:46:37.504Z,77.37
2022-11-07T10:47:37.500Z,76.76
2022-11-07T10:48:37.491Z,76.65
2022-11-07T10:49:37.486Z,77.26
2022-11-07T10:50:37.476Z,77.06
2022-11-07T10:51:37.471Z,76.96
2022-11-07T10:52:37.462Z,76.76
2022-11-07T10:53:37.459Z,77.37
2022-11-07T10:54:37.487Z,76.76
2022-11-07T10:55:37.443Z,76.62
2022-11-07T10:56:37.436Z,77.37
2022-11-07T10:57:37.435Z,76.92
2022-11-07T10:58:37.419Z,77.33
2022-11-07T10:59:37.411Z,76.42
2022-11-07T11:00:37.513Z,76.21
2022-11-07T11:01:37.554Z,76.72
2022-11-07T11:02:37.622Z,76.11
2022-11-07T11:03:44.426Z,75.91
2022-11-07T11:04:37.381Z,77.09
2022-11-07T11:05:37.373Z,76.07
2022-11-07T11:06:37.399Z,75.26
2022-11-07T11:07:37.360Z,75.16
2022-11-07T11:08:37.350Z,74.62
2022-11-07T11:09:37.350Z,75.02
2022-11-07T11:10:37.337Z,74.52
2022-11-07T11:11:37.336Z,74.45
2022-11-07T11:12:37.328Z,74.52
2022-11-07T11:13:37.320Z,74.52
2022-11-07T11:14:37.312Z,75.02
2022-11-07T11:15:37.307Z,74.62
2022-11-07T11:16:37.322Z,74.52
2022-11-07T11:17:37.312Z,74.41
2022-11-07T11:18:37.289Z,73.91
2022-11-07T11:19:37.276Z,74.11
2022-11-07T11:20:37.276Z,73.80
2022-11-07T11:21:37.267Z,74.07
2022-11-07T11:22:37.258Z,74.18
2022-11-07T11:23:37.253Z,74.18
2022-11-07T11:24:37.256Z,74.38
2022-11-07T11:25:37.243Z,73.77
2022-11-07T11:26:37.234Z,73.97
2022-11-07T11:27:37.226Z,73.77
2022-11-07T11:28:37.219Z,74.48
2022-11-07T11:29:39.734Z,73.57
2022-11-07T11:30:37.219Z,74.48
2022-11-07T11:31:37.217Z,73.87
2022-11-07T11:32:37.201Z,74.18
2022-11-07T11:33:37.190Z,74.18
2022-11-07T11:34:37.182Z,73.77
2022-11-07T11:35:41.603Z,73.87
2022-11-07T11:36:37.167Z,73.97
2022-11-07T11:37:37.186Z,73.16
2022-11-07T11:38:37.158Z,73.77
2022-11-07T11:39:37.165Z,73.46
2022-11-07T11:40:37.147Z,73.46
2022-11-07T11:41:37.140Z,73.87
2022-11-07T11:42:37.145Z,73.67
2022-11-07T11:43:37.127Z,74.07
2022-11-07T11:44:37.118Z,73.36
2022-11-07T11:45:37.114Z,73.46
2022-11-07T11:46:37.242Z,73.67
2022-11-07T11:47:37.119Z,73.26
2022-11-07T11:48:37.092Z,73.36
2022-11-07T11:49:37.088Z,73.16
2022-11-07T11:50:37.084Z,73.16
2022-11-07T11:51:37.075Z,73.36
2022-11-07T11:52:37.072Z,73.06
2022-11-07T11:53:37.063Z,73.63
2022-11-07T11:54:37.060Z,73.02
2022-11-07T11:55:37.059Z,73.63
2022-11-07T11:56:37.047Z,73.53
2022-11-07T11:57:37.041Z,73.22
2022-11-07T11:58:37.032Z,73.43
2022-11-07T11:59:37.024Z,73.22
2022-11-07T12:00:37.017Z,73.53
2022-11-07T12:01:37.012Z,73.22
2022-11-07T12:02:37.086Z,73.22
2022-11-07T12:03:37.005Z,72.62
2022-11-07T12:04:37.003Z,72.17
2022-11-07T12:05:37.014Z,71.57
2022-11-07T12:06:36.985Z,71.77
2022-11-07T12:07:36.976Z,71.36
2022-11-07T12:08:36.970Z,71.36
2022-11-07T12:09:36.963Z,71.67
2022-11-07T12:10:36.959Z,71.47
2022-11-07T12:11:36.953Z,72.28
2022-11-07T12:12:36.969Z,72.48
2022-11-07T12:13:36.941Z,71.26
2022-11-07T12:14:36.933Z,70.86
2022-11-07T12:15:36.936Z,71.57
2022-11-07T12:16:37.009Z,71.26
2022-11-07T12:17:36.916Z,71.47
2022-11-07T12:18:36.911Z,71.36
2022-11-07T12:19:36.904Z,71.44
2022-11-07T12:20:36.900Z,71.67
2022-11-07T12:21:36.946Z,71.26
2022-11-07T12:22:36.883Z,71.47
2022-11-07T12:23:36.887Z,71.26
2022-11-07T12:24:36.961Z,71.06
2022-11-07T12:25:36.871Z,71.26
2022-11-07T12:26:36.861Z,70.65
2022-11-07T12:27:36.854Z,71.47
2022-11-07T12:28:36.848Z,70.52
2022-11-07T12:29:36.846Z,71.26
2022-11-07T12:30:36.837Z,71.84
2022-11-07T12:31:36.834Z,71.73
2022-11-07T12:32:36.822Z,71.23
2022-11-07T12:33:36.822Z,71.23
2022-11-07T12:34:36.812Z,71.84
2022-11-07T12:35:36.809Z,71.33
2022-11-07T12:36:36.806Z,71.53
2022-11-07T12:37:36.794Z,71.20
2022-11-07T12:38:36.791Z,70.59
2022-11-07T12:39:36.788Z,70.52
2022-11-07T12:40:36.778Z,71.13
2022-11-07T12:41:36.773Z,70.59
2022-11-07T12:42:36.768Z,70.52
2022-11-07T12:43:36.762Z,71.23
2022-11-07T12:44:36.761Z,71.53
2022-11-07T12:45:36.753Z,71.23
2022-11-07T12:46:36.740Z,71.53
2022-11-07T12:47:36.738Z,71.33
2022-11-07T12:48:36.745Z,71.44
2022-11-07T12:49:36.727Z,71.44
2022-11-07T12:50:36.727Z,71.13
2022-11-07T12:51:36.718Z,70.92
2022-11-07T12:52:36.715Z,71.23
2022-11-07T12:53:36.790Z,71.47
2022-11-07T12:54:36.697Z,71.36
2022-11-07T12:55:36.698Z,71.36
2022-11-07T12:56:36.687Z,71.44
2022-11-07T12:57:36.690Z,72.28
2022-11-07T12:58:36.677Z,71.26
2022-11-07T12:59:36.693Z,71.36
2022-11-07T13:00:36.669Z,71.88
2022-11-07T13:01:36.844Z,72.17
2022-11-07T13:02:36.698Z,71.47